CheckWX is a tool to help pilots better visualize weather data.  It is not intended as a substitute for an official pre-flight weather briefing.

11:58:31 UTC

MHLC TAF
Goloson International Airport
La Ceiba, Honduras
TAF COR MHLC 161025Z 1612/1712 16004KT 9999 SCT026 SCT070 TX32/1621Z TN23/1712Z BECMG 1616/1618 03008KT SCT028 BECMG 1621/1623 SCT028TCU SCT080 BECMG 1702/1704 21004KT

Oct-16@
12:00 UTC

Oct-16 @ 12:00 UTC

Oct-16@
16:00 UTC

Oct-16 @ 16:00 UTC

TAF COR MHLC 161025Z 1612/1712 16004KT 9999 SCT026 SCT070 TX32/1621Z TN23/1712Z
Wind
  • 160° at 4 KTS
Cloud Levels
  • Scattered at 2,600' AGL
  • Scattered at 7,000' AGL

Oct-16@
16:00 UTC

Oct-16 @ 16:00 UTC

Oct-16@
21:00 UTC

Oct-16 @ 21:00 UTC

BECMG 1616/1618 03008KT SCT028

Becoming

Becoming Conditions expected by Wed, Oct 16, 2019 @ 18:00 UTC

Wind
  • 030° at 8 KTS
Cloud Levels
  • Scattered at 2,800' AGL

Oct-16@
21:00 UTC

Oct-16 @ 21:00 UTC

Oct-17@
02:00 UTC

Oct-17 @ 02:00 UTC

BECMG 1621/1623 SCT028TCU SCT080

Becoming

Becoming Conditions expected by Wed, Oct 16, 2019 @ 23:00 UTC

Wind
  • 030° at 8 KTS
Cloud Levels
  • Scattered at 2,800' AGL
  • Scattered at 8,000' AGL

Oct-17@
02:00 UTC

Oct-17 @ 02:00 UTC

Oct-17@
12:00 UTC

Oct-17 @ 12:00 UTC

BECMG 1702/1704 21004KT

Becoming

Becoming Conditions expected by Thu, Oct 17, 2019 @ 04:00 UTC

Wind
  • 210° at 4 KTS
Cloud Levels
  • Scattered at 2,800' AGL
  • Scattered at 8,000' AGL